createdAt,value
2022-12-20T00:00:35.714Z,0.05
2022-12-20T00:01:35.789Z,0.08
2022-12-20T00:02:35.854Z,0.11
2022-12-20T00:03:35.668Z,0.08
2022-12-20T00:04:35.671Z,0.10
2022-12-20T00:05:35.662Z,0.11
2022-12-20T00:06:35.670Z,0.04
2022-12-20T00:07:35.644Z,0.05
2022-12-20T00:08:35.618Z,0.12
2022-12-20T00:09:35.600Z,0.16
2022-12-20T00:10:35.581Z,0.18
2022-12-20T00:11:35.563Z,0.21
2022-12-20T00:12:35.554Z,0.21
2022-12-20T00:13:35.581Z,0.19
2022-12-20T00:14:35.534Z,0.22
2022-12-20T00:15:35.509Z,0.16
2022-12-20T00:16:35.561Z,0.16
2022-12-20T00:17:35.583Z,0.12
2022-12-20T00:18:35.477Z,0.11
2022-12-20T00:19:35.478Z,0.16
2022-12-20T00:20:35.459Z,0.15
2022-12-20T00:21:35.443Z,0.16
2022-12-20T00:22:35.417Z,0.16
2022-12-20T00:23:35.444Z,0.16
2022-12-20T00:24:35.392Z,0.18
2022-12-20T00:25:35.386Z,0.19
2022-12-20T00:26:35.383Z,0.23
2022-12-20T00:27:35.364Z,0.23
2022-12-20T00:28:35.341Z,0.29
2022-12-20T00:29:35.333Z,0.31
2022-12-20T00:30:35.318Z,0.21
2022-12-20T00:31:35.421Z,0.23
2022-12-20T00:32:35.293Z,0.22
2022-12-20T00:33:35.287Z,0.22
2022-12-20T00:34:35.257Z,0.22
2022-12-20T00:35:35.251Z,0.22
2022-12-20T00:36:35.239Z,0.18
2022-12-20T00:37:35.217Z,0.18
2022-12-20T00:38:35.216Z,0.12
2022-12-20T00:39:35.282Z,0.18
2022-12-20T00:40:35.192Z,0.18
2022-12-20T00:41:35.178Z,0.18
2022-12-20T00:42:35.158Z,0.18
2022-12-20T00:43:35.148Z,0.12
2022-12-20T00:44:35.133Z,0.08
2022-12-20T00:45:35.138Z,0.07
2022-12-20T00:46:35.247Z,0.07
2022-12-20T00:47:35.094Z,0.04
2022-12-20T00:48:35.071Z,0.01
2022-12-20T00:49:35.065Z,-0.02
2022-12-20T00:50:35.057Z,-0.07
2022-12-20T00:51:35.039Z,-0.06
2022-12-20T00:52:35.020Z,-0.11
2022-12-20T00:53:35.024Z,-0.11
2022-12-20T00:54:35.002Z,-0.17
2022-12-20T00:55:35.010Z,-0.21
2022-12-20T00:56:34.974Z,-0.20
2022-12-20T00:57:34.981Z,-0.21
2022-12-20T00:58:34.950Z,-0.28
2022-12-20T00:59:34.926Z,-0.28
2022-12-20T01:00:35.023Z,-0.26
2022-12-20T01:01:35.211Z,-0.26
2022-12-20T01:02:35.121Z,-0.23
2022-12-20T01:03:34.968Z,-0.23
2022-12-20T01:04:34.863Z,-0.26
2022-12-20T01:05:34.860Z,-0.23
2022-12-20T01:06:34.836Z,-0.28
2022-12-20T01:07:34.831Z,-0.26
2022-12-20T01:08:34.822Z,-0.32
2022-12-20T01:09:34.807Z,-0.35
2022-12-20T01:10:34.789Z,-0.32
2022-12-20T01:11:34.808Z,-0.35
2022-12-20T01:12:34.762Z,-0.29
2022-12-20T01:13:34.782Z,-0.34
2022-12-20T01:14:34.736Z,-0.31
2022-12-20T01:15:34.712Z,-0.29
2022-12-20T01:16:34.830Z,-0.28
2022-12-20T01:17:34.705Z,-0.26
2022-12-20T01:18:34.692Z,-0.23
2022-12-20T01:19:34.660Z,-0.25
2022-12-20T01:20:34.656Z,-0.25
2022-12-20T01:21:34.640Z,-0.26
2022-12-20T01:22:34.632Z,-0.28
2022-12-20T01:23:34.613Z,-0.29
2022-12-20T01:24:34.629Z,-0.20
2022-12-20T01:25:34.596Z,-0.20
2022-12-20T01:26:34.576Z,-0.18
2022-12-20T01:27:34.590Z,-0.15
2022-12-20T01:28:34.542Z,-0.11
2022-12-20T01:29:34.535Z,-0.13
2022-12-20T01:30:34.533Z,-0.11
2022-12-20T01:31:34.535Z,-0.06
2022-12-20T01:32:34.496Z,-0.06
2022-12-20T01:33:34.480Z,-0.10
2022-12-20T01:34:34.470Z,-0.11
2022-12-20T01:35:34.463Z,-0.13
2022-12-20T01:36:34.449Z,-0.11
2022-12-20T01:37:34.430Z,-0.11
2022-12-20T01:38:34.423Z,-0.10
2022-12-20T01:39:34.395Z,-0.08
2022-12-20T01:40:34.399Z,0.00
2022-12-20T01:41:34.391Z,-0.07
2022-12-20T01:42:34.373Z,-0.03
2022-12-20T01:43:34.406Z,-0.02
2022-12-20T01:44:34.341Z,-0.03
2022-12-20T01:45:34.386Z,-0.03
2022-12-20T01:46:34.409Z,0.01
2022-12-20T01:47:34.316Z,0.00
2022-12-20T01:48:34.299Z,0.03
2022-12-20T01:49:34.270Z,0.01
2022-12-20T01:50:34.256Z,0.04
2022-12-20T01:51:34.249Z,0.00
2022-12-20T01:52:34.230Z,0.01
2022-12-20T01:53:34.222Z,0.00
2022-12-20T01:54:34.207Z,0.03
2022-12-20T01:55:34.198Z,0.04
2022-12-20T01:56:34.173Z,0.04
2022-12-20T01:57:34.159Z,0.07
2022-12-20T01:58:34.153Z,0.04
2022-12-20T01:59:34.173Z,0.03
2022-12-20T02:00:34.130Z,0.03
2022-12-20T02:01:34.247Z,0.00
2022-12-20T02:02:34.182Z,-0.06
2022-12-20T02:03:34.127Z,-0.02
2022-12-20T02:04:34.062Z,-0.03
2022-12-20T02:05:34.065Z,-0.06
2022-12-20T02:06:34.047Z,-0.10
2022-12-20T02:07:34.038Z,-0.11
2022-12-20T02:08:34.022Z,-0.11
2022-12-20T02:09:34.001Z,-0.15
2022-12-20T02:10:33.986Z,-0.11
2022-12-20T02:11:33.986Z,-0.10
2022-12-20T02:12:33.968Z,-0.03
2022-12-20T02:13:33.966Z,-0.02
2022-12-20T02:14:33.932Z,0.00
2022-12-20T02:15:33.948Z,0.01
2022-12-20T02:16:33.942Z,0.04
2022-12-20T02:17:33.898Z,0.08
2022-12-20T02:18:33.903Z,0.08
2022-12-20T02:19:33.874Z,0.10
2022-12-20T02:20:33.878Z,0.08
2022-12-20T02:21:33.848Z,0.08
2022-12-20T02:22:33.855Z,0.08
2022-12-20T02:23:33.822Z,0.08
2022-12-20T02:24:33.811Z,0.08
2022-12-20T02:25:33.786Z,0.10
2022-12-20T02:26:33.781Z,0.08
2022-12-20T02:27:33.762Z,0.07
2022-12-20T02:28:33.750Z,0.05
2022-12-20T02:29:33.746Z,0.05
2022-12-20T02:30:33.729Z,0.04
2022-12-20T02:31:33.883Z,0.04
2022-12-20T02:32:33.694Z,0.05
2022-12-20T02:33:33.683Z,0.00
2022-12-20T02:34:33.680Z,0.03
2022-12-20T02:35:33.677Z,0.03
2022-12-20T02:36:33.659Z,0.03
2022-12-20T02:37:33.639Z,0.04
2022-12-20T02:38:33.621Z,0.00
2022-12-20T02:39:33.619Z,0.07
2022-12-20T02:40:33.613Z,0.05
2022-12-20T02:41:33.584Z,0.03
2022-12-20T02:42:33.590Z,0.05
2022-12-20T02:43:33.563Z,0.07
2022-12-20T02:44:33.543Z,0.04
2022-12-20T02:45:33.562Z,0.05
2022-12-20T02:46:33.596Z,-0.03
2022-12-20T02:47:33.543Z,-0.03
2022-12-20T02:48:33.505Z,-0.02
2022-12-20T02:49:33.476Z,0.04
2022-12-20T02:50:33.463Z,0.03
2022-12-20T02:51:33.494Z,0.05
2022-12-20T02:52:33.436Z,0.04
2022-12-20T02:53:33.433Z,0.07
2022-12-20T02:54:33.429Z,0.07
2022-12-20T02:55:33.389Z,0.08
2022-12-20T02:56:33.395Z,0.11
2022-12-20T02:57:33.372Z,0.15
2022-12-20T02:58:33.356Z,0.11
2022-12-20T02:59:33.355Z,0.11
2022-12-20T03:00:33.344Z,0.15
2022-12-20T03:01:33.469Z,0.12
2022-12-20T03:02:33.639Z,0.16
2022-12-20T03:03:33.368Z,0.16
2022-12-20T03:04:33.286Z,0.21
2022-12-20T03:05:33.278Z,0.18
2022-12-20T03:06:33.241Z,0.18
2022-12-20T03:07:33.239Z,0.21
2022-12-20T03:08:33.232Z,0.18
2022-12-20T03:09:33.208Z,0.18
2022-12-20T03:10:33.210Z,0.23
2022-12-20T03:11:33.187Z,0.22
2022-12-20T03:12:33.171Z,0.23
2022-12-20T03:13:33.161Z,0.26
2022-12-20T03:14:33.150Z,0.26
2022-12-20T03:15:33.134Z,0.21
2022-12-20T03:16:33.161Z,0.23
2022-12-20T03:17:33.099Z,0.23
2022-12-20T03:18:33.094Z,0.28
2022-12-20T03:19:33.106Z,0.26
2022-12-20T03:20:33.072Z,0.28
2022-12-20T03:21:33.060Z,0.31
2022-12-20T03:22:33.031Z,0.28
2022-12-20T03:23:33.028Z,0.29
2022-12-20T03:24:33.027Z,0.22
2022-12-20T03:25:33.008Z,0.28
2022-12-20T03:26:32.980Z,0.28
2022-12-20T03:27:32.966Z,0.26
2022-12-20T03:28:32.963Z,0.29
2022-12-20T03:29:32.948Z,0.26
2022-12-20T03:30:32.999Z,0.28
2022-12-20T03:31:32.984Z,0.26
2022-12-20T03:32:32.906Z,0.22
2022-12-20T03:33:32.895Z,0.22
2022-12-20T03:34:32.880Z,0.22
2022-12-20T03:35:32.895Z,0.15
2022-12-20T03:36:32.864Z,0.19
2022-12-20T03:37:32.835Z,0.15
2022-12-20T03:38:32.838Z,0.15
2022-12-20T03:39:32.816Z,0.15
2022-12-20T03:40:32.824Z,0.11
2022-12-20T03:41:32.840Z,0.12
2022-12-20T03:42:32.770Z,0.08
2022-12-20T03:43:32.765Z,0.05
2022-12-20T03:44:32.852Z,0.05
2022-12-20T03:45:32.729Z,0.07
2022-12-20T03:46:32.842Z,0.10
2022-12-20T03:47:32.711Z,0.05
2022-12-20T03:48:32.700Z,0.00
2022-12-20T03:49:32.688Z,0.04
2022-12-20T03:50:32.674Z,0.00
2022-12-20T03:51:32.674Z,-0.02
2022-12-20T03:52:32.644Z,-0.06
2022-12-20T03:53:32.635Z,-0.06
2022-12-20T03:54:32.626Z,-0.02
2022-12-20T03:55:32.608Z,-0.02
2022-12-20T03:56:32.590Z,-0.02
2022-12-20T03:57:32.582Z,-0.03
2022-12-20T03:58:32.576Z,0.00
2022-12-20T03:59:32.551Z,0.01
2022-12-20T04:00:32.539Z,0.03
2022-12-20T04:01:32.629Z,0.05
2022-12-20T04:02:32.734Z,0.03
2022-12-20T04:03:32.591Z,0.07
2022-12-20T04:04:32.490Z,0.11
2022-12-20T04:05:32.471Z,0.11
2022-12-20T04:06:32.463Z,0.08
2022-12-20T04:07:32.474Z,0.12
2022-12-20T04:08:32.445Z,0.08
2022-12-20T04:09:32.428Z,0.10
2022-12-20T04:10:32.409Z,0.12
2022-12-20T04:11:32.390Z,0.16
2022-12-20T04:12:32.382Z,0.19
2022-12-20T04:13:32.387Z,0.18
2022-12-20T04:14:32.356Z,0.16
2022-12-20T04:15:32.370Z,0.19
2022-12-20T04:16:32.444Z,0.21
2022-12-20T04:17:32.308Z,0.22
2022-12-20T04:18:32.298Z,0.23
2022-12-20T04:19:32.293Z,0.22
2022-12-20T04:20:32.280Z,0.22
2022-12-20T04:21:32.288Z,0.29
2022-12-20T04:22:32.246Z,0.23
2022-12-20T04:23:32.280Z,0.25
2022-12-20T04:24:32.228Z,0.23
2022-12-20T04:25:32.206Z,0.25
2022-12-20T04:26:32.193Z,0.23
2022-12-20T04:27:32.190Z,0.25
2022-12-20T04:28:32.181Z,0.29
2022-12-20T04:29:32.168Z,0.32
2022-12-20T04:30:32.149Z,0.29
2022-12-20T04:31:32.239Z,0.26
2022-12-20T04:32:32.112Z,0.28
2022-12-20T04:33:32.105Z,0.28
2022-12-20T04:34:32.097Z,0.28
2022-12-20T04:35:32.084Z,0.28
2022-12-20T04:36:32.061Z,0.31
2022-12-20T04:37:32.077Z,0.26
2022-12-20T04:38:32.037Z,0.31
2022-12-20T04:39:32.072Z,0.28
2022-12-20T04:40:32.015Z,0.28
2022-12-20T04:41:32.006Z,0.32
2022-12-20T04:42:31.982Z,0.34
2022-12-20T04:43:31.966Z,0.36
2022-12-20T04:44:31.966Z,0.34
2022-12-20T04:45:31.955Z,0.31
2022-12-20T04:46:32.036Z,0.31
2022-12-20T04:47:31.930Z,0.32
2022-12-20T04:49:05.795Z,0.32
2022-12-20T04:49:32.943Z,0.31
2022-12-20T04:50:31.882Z,0.34
2022-12-20T04:51:31.899Z,0.32
2022-12-20T04:52:31.880Z,0.29
2022-12-20T04:53:31.850Z,0.31
2022-12-20T04:54:31.833Z,0.29
2022-12-20T04:55:31.871Z,0.29
2022-12-20T04:56:31.840Z,0.25
2022-12-20T04:57:31.807Z,0.25
2022-12-20T04:58:31.773Z,0.23
2022-12-20T04:59:31.768Z,0.28
2022-12-20T05:00:31.762Z,0.26
2022-12-20T05:01:31.800Z,0.25
2022-12-20T05:02:31.903Z,0.23
2022-12-20T05:03:31.787Z,0.26
2022-12-20T05:04:37.349Z,0.29
2022-12-20T05:05:32.707Z,0.29
2022-12-20T05:06:31.680Z,0.28
2022-12-20T05:07:31.657Z,0.29
2022-12-20T05:08:31.642Z,0.26
2022-12-20T05:09:31.639Z,0.31
2022-12-20T05:10:31.623Z,0.31
2022-12-20T05:11:31.634Z,0.29
2022-12-20T05:12:31.606Z,0.34
2022-12-20T05:13:31.586Z,0.31
2022-12-20T05:14:31.561Z,0.28
2022-12-20T05:15:31.548Z,0.31
2022-12-20T05:16:31.606Z,0.29
2022-12-20T05:17:31.524Z,0.32
2022-12-20T05:18:31.518Z,0.37
2022-12-20T05:19:31.494Z,0.37
2022-12-20T05:20:31.485Z,0.39
2022-12-20T05:21:31.484Z,0.37
2022-12-20T05:22:31.463Z,0.36
2022-12-20T05:23:31.465Z,0.39
2022-12-20T05:24:31.434Z,0.43
2022-12-20T05:25:31.450Z,0.43
2022-12-20T05:26:31.427Z,0.40
2022-12-20T05:27:31.421Z,0.40
2022-12-20T05:28:31.378Z,0.39
2022-12-20T05:29:31.370Z,0.43
2022-12-20T05:30:31.358Z,0.39
2022-12-20T05:31:31.426Z,0.34
2022-12-20T05:32:31.338Z,0.32
2022-12-20T05:33:34.257Z,0.29
2022-12-20T05:34:31.329Z,0.26
2022-12-20T05:35:31.295Z,0.22
2022-12-20T05:36:31.287Z,0.26
2022-12-20T05:37:31.261Z,0.25
2022-12-20T05:38:31.262Z,0.25
2022-12-20T05:39:31.264Z,0.22
2022-12-20T05:40:31.225Z,0.23
2022-12-20T05:41:31.225Z,0.22
2022-12-20T05:42:31.200Z,0.26
2022-12-20T05:43:31.221Z,0.25
2022-12-20T05:44:31.170Z,0.28
2022-12-20T05:45:31.183Z,0.23
2022-12-20T05:46:31.196Z,0.25
2022-12-20T05:47:31.134Z,0.28
2022-12-20T05:48:31.133Z,0.26
2022-12-20T05:49:31.106Z,0.26
2022-12-20T05:50:31.093Z,0.23
2022-12-20T05:51:31.085Z,0.23
2022-12-20T05:52:31.078Z,0.25
2022-12-20T05:53:31.061Z,0.23
2022-12-20T05:54:31.043Z,0.25
2022-12-20T05:55:31.041Z,0.19
2022-12-20T05:56:31.027Z,0.18
2022-12-20T05:57:31.003Z,0.19
2022-12-20T05:58:30.990Z,0.22
2022-12-20T05:59:31.006Z,0.18
2022-12-20T06:00:30.954Z,0.21
2022-12-20T06:01:31.032Z,0.21
2022-12-20T06:02:31.297Z,0.18
2022-12-20T06:03:31.146Z,0.25
2022-12-20T06:04:30.919Z,0.22
2022-12-20T06:05:30.903Z,0.26
2022-12-20T06:06:30.898Z,0.26
2022-12-20T06:07:30.865Z,0.28
2022-12-20T06:08:30.862Z,0.28
2022-12-20T06:09:30.854Z,0.25
2022-12-20T06:10:30.832Z,0.23
2022-12-20T06:11:30.905Z,0.23
2022-12-20T06:12:30.804Z,0.26
2022-12-20T06:13:30.801Z,0.21
2022-12-20T06:14:30.786Z,0.25
2022-12-20T06:15:30.806Z,0.25
2022-12-20T06:16:30.789Z,0.25
2022-12-20T06:17:30.750Z,0.22
2022-12-20T06:18:30.747Z,0.25
2022-12-20T06:19:30.717Z,0.22
2022-12-20T06:20:30.704Z,0.26
2022-12-20T06:21:30.698Z,0.28
2022-12-20T06:22:30.670Z,0.22
2022-12-20T06:23:30.659Z,0.23
2022-12-20T06:24:30.665Z,0.26
2022-12-20T06:25:30.644Z,0.26
2022-12-20T06:26:30.617Z,0.22
2022-12-20T06:27:30.609Z,0.26
2022-12-20T06:28:30.609Z,0.22
2022-12-20T06:29:30.597Z,0.25
2022-12-20T06:30:34.096Z,0.26
2022-12-20T06:31:30.633Z,0.26
2022-12-20T06:32:30.539Z,0.23
2022-12-20T06:33:30.526Z,0.28
2022-12-20T06:34:30.512Z,0.29
2022-12-20T06:35:30.498Z,0.25
2022-12-20T06:36:30.487Z,0.34
2022-12-20T06:37:30.489Z,0.29
2022-12-20T06:38:30.484Z,0.28
2022-12-20T06:39:30.457Z,0.31
2022-12-20T06:40:30.451Z,0.26
2022-12-20T06:41:30.434Z,0.26
2022-12-20T06:42:30.411Z,0.26
2022-12-20T06:43:30.393Z,0.23
2022-12-20T06:44:30.388Z,0.21
2022-12-20T06:45:34.672Z,0.18
2022-12-20T06:46:31.445Z,0.22
2022-12-20T06:47:30.374Z,0.26
2022-12-20T06:48:30.347Z,0.26
2022-12-20T06:49:30.382Z,0.23
2022-12-20T06:50:30.309Z,0.29
2022-12-20T06:51:30.307Z,0.32
2022-12-20T06:52:30.282Z,0.32
2022-12-20T06:53:30.267Z,0.31
2022-12-20T06:54:30.251Z,0.36
2022-12-20T06:55:30.250Z,0.39
2022-12-20T06:56:32.557Z,0.40
2022-12-20T06:57:30.232Z,0.37
2022-12-20T06:58:30.209Z,0.36
2022-12-20T06:59:30.221Z,0.37
2022-12-20T07:00:30.259Z,0.34
2022-12-20T07:01:30.420Z,0.34
2022-12-20T07:02:30.278Z,0.34
2022-12-20T07:03:30.353Z,0.34
2022-12-20T07:04:30.128Z,0.36
2022-12-20T07:05:30.124Z,0.36
2022-12-20T07:06:30.096Z,0.41
2022-12-20T07:07:30.078Z,0.39
2022-12-20T07:08:30.072Z,0.47
2022-12-20T07:09:30.075Z,0.44
2022-12-20T07:10:30.126Z,0.47
2022-12-20T07:11:30.033Z,0.50
2022-12-20T07:12:30.025Z,0.47
2022-12-20T07:13:30.010Z,0.49
2022-12-20T07:14:29.995Z,0.47
2022-12-20T07:15:29.977Z,0.49
2022-12-20T07:16:30.014Z,0.52
2022-12-20T07:17:29.957Z,0.49
2022-12-20T07:18:29.942Z,0.50
2022-12-20T07:19:29.960Z,0.56
2022-12-20T07:20:30.090Z,0.52
2022-12-20T07:21:29.900Z,0.52
2022-12-20T07:22:29.905Z,0.58
2022-12-20T07:23:29.876Z,0.55
2022-12-20T07:24:29.861Z,0.56
2022-12-20T07:25:29.836Z,0.56
2022-12-20T07:26:29.846Z,0.50
2022-12-20T07:27:29.824Z,0.60
2022-12-20T07:28:29.803Z,0.58
2022-12-20T07:29:29.797Z,0.55
2022-12-20T07:30:29.772Z,0.50
2022-12-20T07:31:29.777Z,0.52
2022-12-20T07:32:29.775Z,0.52
2022-12-20T07:33:29.745Z,0.56
2022-12-20T07:34:29.730Z,0.56
2022-12-20T07:35:29.745Z,0.59
2022-12-20T07:36:29.711Z,0.63
2022-12-20T07:37:29.698Z,0.60
2022-12-20T07:38:29.667Z,0.62
2022-12-20T07:39:29.656Z,0.59
2022-12-20T07:40:29.781Z,0.63
2022-12-20T07:41:29.631Z,0.60
2022-12-20T07:42:35.836Z,0.66
2022-12-20T07:43:30.638Z,0.68
2022-12-20T07:44:29.589Z,0.70
2022-12-20T07:45:29.616Z,0.62
2022-12-20T07:46:29.637Z,0.60
2022-12-20T07:47:29.573Z,0.65
2022-12-20T07:48:29.545Z,0.66
2022-12-20T07:49:29.532Z,0.70
2022-12-20T07:50:29.526Z,0.65
2022-12-20T07:51:29.595Z,0.73
2022-12-20T07:52:29.499Z,0.74
2022-12-20T07:53:29.499Z,0.73
2022-12-20T07:54:29.460Z,0.73
2022-12-20T07:55:29.461Z,0.77
2022-12-20T07:56:29.435Z,0.78
2022-12-20T07:57:29.419Z,0.83
2022-12-20T07:58:29.418Z,0.83
2022-12-20T07:59:29.395Z,0.87
2022-12-20T08:00:29.386Z,0.91
2022-12-20T08:01:29.476Z,0.84
2022-12-20T08:02:29.507Z,0.87
2022-12-20T08:03:29.511Z,0.88
2022-12-20T08:04:29.333Z,0.84
2022-12-20T08:05:29.324Z,0.83
2022-12-20T08:06:29.324Z,0.83
2022-12-20T08:07:29.332Z,0.94
2022-12-20T08:08:29.298Z,0.94
2022-12-20T08:09:29.269Z,0.94
2022-12-20T08:10:29.259Z,0.99
2022-12-20T08:11:29.238Z,1.05
2022-12-20T08:12:29.232Z,0.99
2022-12-20T08:13:29.229Z,1.04
2022-12-20T08:14:29.217Z,1.06
2022-12-20T08:15:29.197Z,1.12
2022-12-20T08:16:29.251Z,1.10
2022-12-20T08:17:29.161Z,1.12
2022-12-20T08:18:29.220Z,1.12
2022-12-20T08:19:32.417Z,1.14
2022-12-20T08:20:29.174Z,1.13
2022-12-20T08:21:29.159Z,1.13
2022-12-20T08:22:29.116Z,1.16
2022-12-20T08:23:29.099Z,1.16
2022-12-20T08:24:29.072Z,1.16
2022-12-20T08:25:29.051Z,1.17
2022-12-20T08:26:29.040Z,1.19
2022-12-20T08:27:29.043Z,1.24
2022-12-20T08:28:29.026Z,1.19
2022-12-20T08:29:29.044Z,1.20
2022-12-20T08:30:28.988Z,1.20
2022-12-20T08:31:29.182Z,1.28
2022-12-20T08:32:28.960Z,1.28
2022-12-20T08:33:28.958Z,1.26
2022-12-20T08:34:28.944Z,1.30
2022-12-20T08:35:28.925Z,1.26
2022-12-20T08:36:28.918Z,1.23
2022-12-20T08:37:28.896Z,1.26
2022-12-20T08:38:28.884Z,1.30
2022-12-20T08:39:28.900Z,1.31
2022-12-20T08:40:28.884Z,1.26
2022-12-20T08:41:28.850Z,1.34
2022-12-20T08:42:29.190Z,1.34
2022-12-20T08:43:28.814Z,1.38
2022-12-20T08:44:28.810Z,1.42
2022-12-20T08:45:28.808Z,1.42
2022-12-20T08:46:28.915Z,1.42
2022-12-20T08:47:28.762Z,1.44
2022-12-20T08:48:28.747Z,1.50
2022-12-20T08:49:28.743Z,1.55
2022-12-20T08:50:28.773Z,1.58
2022-12-20T08:51:28.783Z,1.58
2022-12-20T08:52:28.697Z,1.59
2022-12-20T08:53:28.686Z,1.56
2022-12-20T08:54:28.702Z,1.60
2022-12-20T08:55:29.622Z,1.59
2022-12-20T08:56:28.654Z,1.58
2022-12-20T08:57:28.646Z,1.58
2022-12-20T08:58:28.620Z,1.55
2022-12-20T08:59:28.606Z,1.59
2022-12-20T09:00:28.601Z,1.59
2022-12-20T09:01:28.663Z,1.63
2022-12-20T09:02:28.781Z,1.63
2022-12-20T09:03:28.626Z,1.67
2022-12-20T09:04:28.559Z,1.71
2022-12-20T09:05:28.534Z,1.66
2022-12-20T09:06:28.528Z,1.68
2022-12-20T09:07:28.504Z,1.68
2022-12-20T09:08:28.506Z,1.67
2022-12-20T09:09:28.503Z,1.74
2022-12-20T09:10:28.467Z,1.74
2022-12-20T09:11:28.484Z,1.76
2022-12-20T09:12:28.435Z,1.78
2022-12-20T09:13:28.431Z,1.76
2022-12-20T09:14:28.413Z,1.80
2022-12-20T09:15:28.464Z,1.78
2022-12-20T09:16:28.469Z,1.76
2022-12-20T09:17:28.403Z,1.77
2022-12-20T09:18:28.364Z,1.78
2022-12-20T09:19:28.350Z,1.74
2022-12-20T09:20:28.338Z,1.85
2022-12-20T09:21:28.324Z,1.92
2022-12-20T09:22:28.322Z,1.89
2022-12-20T09:23:28.291Z,1.97
2022-12-20T09:24:28.292Z,1.99
2022-12-20T09:25:28.284Z,2.06
2022-12-20T09:26:28.263Z,2.10
2022-12-20T09:27:28.260Z,2.10
2022-12-20T09:28:28.229Z,2.08
2022-12-20T09:29:35.104Z,2.07
2022-12-20T09:30:29.255Z,2.18
2022-12-20T09:31:28.276Z,2.14
2022-12-20T09:32:28.180Z,2.25
2022-12-20T09:33:28.160Z,2.28
2022-12-20T09:34:28.144Z,2.24
2022-12-20T09:35:28.140Z,2.25
2022-12-20T09:36:28.122Z,2.24
2022-12-20T09:37:28.755Z,2.31
2022-12-20T09:38:28.098Z,2.31
2022-12-20T09:39:28.081Z,2.33
2022-12-20T09:40:28.080Z,2.33
2022-12-20T09:41:28.052Z,2.32
2022-12-20T09:42:28.037Z,2.33
2022-12-20T09:43:28.066Z,2.33
2022-12-20T09:44:28.018Z,2.38
2022-12-20T09:45:28.006Z,2.39
2022-12-20T09:46:28.041Z,2.42
2022-12-20T09:47:27.983Z,2.42
2022-12-20T09:48:27.963Z,2.42
2022-12-20T09:49:27.957Z,2.42
2022-12-20T09:50:27.953Z,2.47
2022-12-20T09:51:27.927Z,2.53
2022-12-20T09:52:27.916Z,2.64
2022-12-20T09:53:27.893Z,2.68
2022-12-20T09:54:27.886Z,2.68
2022-12-20T09:55:27.885Z,2.72
2022-12-20T09:56:27.857Z,2.79
2022-12-20T09:57:27.839Z,2.74
2022-12-20T09:58:27.836Z,2.77
2022-12-20T09:59:27.838Z,2.74
2022-12-20T10:00:27.815Z,2.74
2022-12-20T10:01:32.577Z,2.74
2022-12-20T10:02:57.292Z,2.74
2022-12-20T10:03:29.244Z,2.72
2022-12-20T10:04:27.918Z,2.74
2022-12-20T10:05:27.854Z,2.75
2022-12-20T10:06:27.730Z,2.72
2022-12-20T10:07:27.747Z,2.80
2022-12-20T10:08:27.705Z,2.80
2022-12-20T10:09:27.701Z,2.74
2022-12-20T10:10:27.677Z,2.79
2022-12-20T10:11:31.646Z,2.74
2022-12-20T10:12:28.692Z,2.72
2022-12-20T10:13:27.635Z,2.68
2022-12-20T10:14:27.648Z,2.69
2022-12-20T10:15:27.651Z,2.62
2022-12-20T10:16:27.738Z,2.65
2022-12-20T10:17:32.402Z,2.60
2022-12-20T10:18:27.582Z,2.62
2022-12-20T10:19:27.553Z,2.60
2022-12-20T10:20:27.580Z,2.62
2022-12-20T10:21:27.542Z,2.61
2022-12-20T10:22:27.521Z,2.56
2022-12-20T10:23:32.998Z,2.54
2022-12-20T10:24:28.524Z,2.53
2022-12-20T10:25:27.482Z,2.51
2022-12-20T10:26:27.482Z,2.49
2022-12-20T10:27:27.471Z,2.47
2022-12-20T10:28:27.441Z,2.43
2022-12-20T10:29:27.431Z,2.44
2022-12-20T10:30:27.451Z,2.49
2022-12-20T10:31:27.583Z,2.44
2022-12-20T10:32:27.392Z,2.47
2022-12-20T10:33:27.372Z,2.47
2022-12-20T10:34:33.298Z,2.47
2022-12-20T10:35:28.386Z,2.50
2022-12-20T10:36:27.492Z,2.49
2022-12-20T10:37:27.317Z,2.53
2022-12-20T10:38:27.313Z,2.54
2022-12-20T10:39:27.299Z,2.60
2022-12-20T10:40:46.297Z,2.54
2022-12-20T10:41:28.311Z,2.60
2022-12-20T10:42:27.266Z,2.65
2022-12-20T10:43:27.252Z,2.65
2022-12-20T10:44:27.247Z,2.68
2022-12-20T10:45:32.582Z,2.71
2022-12-20T10:46:28.296Z,2.67
2022-12-20T10:47:27.216Z,2.71
2022-12-20T10:48:27.183Z,2.75
2022-12-20T10:49:27.178Z,2.71
2022-12-20T10:50:27.155Z,2.75
2022-12-20T10:51:27.138Z,2.77
2022-12-20T10:52:27.136Z,2.82
2022-12-20T10:53:27.127Z,2.83
2022-12-20T10:54:27.106Z,2.95
2022-12-20T10:55:27.085Z,2.98
2022-12-20T10:56:27.071Z,3.07
2022-12-20T10:57:27.068Z,3.10
2022-12-20T10:58:27.045Z,3.11
2022-12-20T10:59:27.058Z,3.18
2022-12-20T11:00:27.022Z,3.23
2022-12-20T11:01:27.147Z,3.26
2022-12-20T11:02:30.293Z,3.32
2022-12-20T11:03:28.210Z,3.37
2022-12-20T11:04:27.120Z,3.40
2022-12-20T11:05:27.005Z,3.36
2022-12-20T11:06:26.957Z,3.37
2022-12-20T11:07:26.963Z,3.44
2022-12-20T11:08:40.857Z,3.44
2022-12-20T11:09:27.959Z,3.36
2022-12-20T11:10:26.919Z,3.32
2022-12-20T11:11:26.895Z,3.31
2022-12-20T11:12:26.879Z,3.37
2022-12-20T11:13:27.040Z,3.31
2022-12-20T11:14:26.852Z,3.34
2022-12-20T11:15:33.952Z,3.40
2022-12-20T11:16:27.934Z,3.41
2022-12-20T11:17:26.859Z,3.42
2022-12-20T11:18:26.802Z,3.47
2022-12-20T11:19:26.819Z,3.41
2022-12-20T11:20:26.814Z,3.41
2022-12-20T11:21:28.475Z,3.42
2022-12-20T11:22:26.747Z,3.48
2022-12-20T11:23:26.785Z,3.48
2022-12-20T11:24:26.721Z,3.55
2022-12-20T11:25:26.703Z,3.56
2022-12-20T11:26:26.704Z,3.56
2022-12-20T11:27:26.703Z,3.59
2022-12-20T11:28:26.660Z,3.58
2022-12-20T11:29:26.671Z,3.53
2022-12-20T11:30:26.635Z,3.59
2022-12-20T11:31:26.754Z,3.60
2022-12-20T11:32:26.624Z,3.62
2022-12-20T11:33:26.603Z,3.66
2022-12-20T11:34:26.580Z,3.68
2022-12-20T11:35:26.600Z,3.77
2022-12-20T11:36:26.568Z,3.74
2022-12-20T11:37:26.558Z,3.88
2022-12-20T11:38:26.528Z,3.98
2022-12-20T11:39:26.529Z,4.06
2022-12-20T11:40:26.506Z,4.20
2022-12-20T11:41:26.504Z,4.20
2022-12-20T11:42:26.487Z,4.28
2022-12-20T11:43:26.468Z,4.35
2022-12-20T11:44:27.500Z,4.40
2022-12-20T11:45:26.493Z,4.48
2022-12-20T11:46:26.490Z,4.42
2022-12-20T11:47:26.422Z,4.48
2022-12-20T11:48:26.403Z,4.55
2022-12-20T11:49:26.403Z,4.52
2022-12-20T11:50:26.379Z,4.55
2022-12-20T11:51:27.246Z,4.52
2022-12-20T11:52:26.344Z,4.52
2022-12-20T11:53:26.347Z,4.52
2022-12-20T11:54:26.346Z,4.49
2022-12-20T11:55:26.306Z,4.44
2022-12-20T11:56:26.302Z,4.42
2022-12-20T11:57:26.282Z,4.41
2022-12-20T11:58:26.319Z,4.42
2022-12-20T11:59:26.269Z,4.37
2022-12-20T12:00:26.247Z,4.35
2022-12-20T12:01:26.404Z,4.30
2022-12-20T12:02:26.389Z,4.22
2022-12-20T12:03:26.386Z,4.22
2022-12-20T12:04:26.221Z,4.17
2022-12-20T12:05:26.313Z,4.17
2022-12-20T12:06:26.238Z,4.14
2022-12-20T12:07:26.237Z,4.08
2022-12-20T12:08:26.137Z,4.01
2022-12-20T12:09:26.142Z,3.98
2022-12-20T12:10:26.123Z,4.01
2022-12-20T12:12:04.728Z,3.98
2022-12-20T12:12:27.134Z,3.98
2022-12-20T12:13:26.076Z,3.95
2022-12-20T12:14:26.095Z,3.94
2022-12-20T12:15:26.054Z,3.94
2022-12-20T12:16:26.063Z,3.95
2022-12-20T12:17:26.077Z,4.02
2022-12-20T12:18:26.017Z,3.99
2022-12-20T12:19:26.003Z,3.96
2022-12-20T12:20:25.992Z,3.98
2022-12-20T12:21:25.997Z,3.99
2022-12-20T12:22:25.960Z,4.04
2022-12-20T12:23:25.998Z,3.99
2022-12-20T12:24:25.929Z,4.04
2022-12-20T12:25:25.923Z,4.01
2022-12-20T12:26:25.901Z,4.05
2022-12-20T12:27:25.896Z,4.02
2022-12-20T12:28:25.874Z,4.08
2022-12-20T12:29:25.872Z,4.08
2022-12-20T12:30:25.850Z,4.12
2022-12-20T12:31:25.908Z,4.17
2022-12-20T12:32:25.830Z,4.16
2022-12-20T12:33:26.054Z,4.19
2022-12-20T12:34:25.830Z,4.22
2022-12-20T12:35:25.798Z,4.24
2022-12-20T12:36:25.784Z,4.22
2022-12-20T12:37:25.760Z,4.17
2022-12-20T12:38:25.743Z,4.17
2022-12-20T12:39:25.762Z,4.20
2022-12-20T12:40:25.724Z,4.14
2022-12-20T12:41:25.714Z,4.12
2022-12-20T12:42:25.704Z,4.06
2022-12-20T12:43:25.676Z,4.13
2022-12-20T12:44:25.677Z,4.13
2022-12-20T12:45:25.685Z,4.20
2022-12-20T12:46:25.683Z,4.26
2022-12-20T12:47:25.646Z,4.31
2022-12-20T12:48:25.631Z,4.42
2022-12-20T12:49:25.599Z,4.40
2022-12-20T12:50:25.587Z,4.55
2022-12-20T12:51:25.578Z,4.56
2022-12-20T12:52:25.572Z,4.63
2022-12-20T12:53:25.557Z,4.66
2022-12-20T12:54:25.582Z,4.67
2022-12-20T12:55:25.555Z,4.71
2022-12-20T12:56:42.549Z,4.73
2022-12-20T12:57:26.534Z,4.75
2022-12-20T12:58:25.484Z,4.77
2022-12-20T12:59:25.477Z,4.75
2022-12-20T13:00:25.463Z,4.74
2022-12-20T13:01:25.543Z,4.73
2022-12-20T13:02:25.770Z,4.75
2022-12-20T13:03:25.554Z,4.73
2022-12-20T13:04:25.403Z,4.77
2022-12-20T13:05:26.365Z,4.73
2022-12-20T13:06:25.388Z,4.77
2022-12-20T13:07:25.394Z,4.74
2022-12-20T13:08:25.361Z,4.75
2022-12-20T13:09:25.345Z,4.71
2022-12-20T13:10:25.714Z,4.75
2022-12-20T13:11:25.339Z,4.84
2022-12-20T13:12:25.306Z,4.78
2022-12-20T13:13:25.294Z,4.84
2022-12-20T13:14:25.277Z,4.86
2022-12-20T13:15:25.279Z,4.86